createdAt,value
2023-05-05T00:02:18.241Z,98349.46
2023-05-05T00:04:46.241Z,98354.58
2023-05-05T00:07:14.126Z,98357.53
2023-05-05T00:09:42.953Z,98354.54
2023-05-05T00:12:10.869Z,98353.98
2023-05-05T00:14:38.720Z,98355.48
2023-05-05T00:17:06.666Z,98355.17
2023-05-05T00:19:34.619Z,98352.98
2023-05-05T00:22:02.483Z,98353.96
2023-05-05T00:24:30.454Z,98348.58
2023-05-05T00:26:58.357Z,98346.73
2023-05-05T00:29:26.890Z,98342.86
2023-05-05T00:31:54.876Z,98336.05
2023-05-05T00:34:22.796Z,98334.86
2023-05-05T00:36:50.670Z,98335.73
2023-05-05T00:39:18.558Z,98337.20
2023-05-05T00:41:46.507Z,98331.58
2023-05-05T00:44:14.384Z,98325.02
2023-05-05T00:46:43.406Z,98325.52
2023-05-05T00:49:12.574Z,98324.61
2023-05-05T00:51:40.538Z,98320.86
2023-05-05T00:54:08.813Z,98315.77
2023-05-05T00:56:37.590Z,98313.95
2023-05-05T00:59:05.648Z,98312.81
2023-05-05T01:01:33.872Z,98312.02
2023-05-05T01:04:01.947Z,98314.80
2023-05-05T01:06:51.908Z,98312.39
2023-05-05T01:10:07.578Z,98312.00
2023-05-05T01:13:09.128Z,98306.27
2023-05-05T01:16:01.623Z,98306.39
2023-05-05T01:18:42.126Z,98306.27
2023-05-05T01:21:16.823Z,98310.79
2023-05-05T01:24:06.973Z,98310.30
2023-05-05T01:27:09.560Z,98312.50
2023-05-05T01:30:03.898Z,98315.08
2023-05-05T01:32:41.203Z,98313.41
2023-05-05T01:35:18.406Z,98312.23
2023-05-05T01:37:52.018Z,98309.70
2023-05-05T01:40:28.024Z,98306.64
2023-05-05T01:42:58.462Z,98305.13
2023-05-05T01:45:32.321Z,98306.50
2023-05-05T01:48:02.237Z,98305.68
2023-05-05T01:50:31.401Z,98308.56
2023-05-05T01:53:01.599Z,98305.54
2023-05-05T01:55:32.215Z,98303.59
2023-05-05T01:58:02.446Z,98302.28
2023-05-05T02:00:32.266Z,98304.66
2023-05-05T02:03:04.570Z,98305.86
2023-05-05T02:05:34.331Z,98306.14
2023-05-05T02:08:05.630Z,98305.11
2023-05-05T02:10:34.490Z,98310.97
2023-05-05T02:13:03.147Z,98312.13
2023-05-05T02:15:33.759Z,98313.04
2023-05-05T02:18:02.590Z,98309.81
2023-05-05T02:20:31.887Z,98310.07
2023-05-05T02:23:00.160Z,98312.07
2023-05-05T02:25:37.353Z,98309.06
2023-05-05T02:28:11.462Z,98307.87
2023-05-05T02:30:40.807Z,98305.31
2023-05-05T02:33:11.792Z,98304.76
2023-05-05T02:35:42.256Z,98305.63
2023-05-05T02:38:17.505Z,98303.31
2023-05-05T02:40:49.933Z,98301.04
2023-05-05T02:43:21.653Z,98301.49
2023-05-05T02:45:49.822Z,98299.98
2023-05-05T02:48:18.412Z,98301.20
2023-05-05T02:50:46.367Z,98302.30
2023-05-05T02:53:29.463Z,98303.90
2023-05-05T02:56:11.392Z,98305.63
2023-05-05T02:59:05.016Z,98309.27
2023-05-05T03:01:59.939Z,98311.87
2023-05-05T03:04:37.168Z,98309.40
2023-05-05T03:07:11.849Z,98308.40
2023-05-05T03:10:06.089Z,98300.27
2023-05-05T03:12:48.598Z,98298.19
2023-05-05T03:15:34.790Z,98290.75
2023-05-05T03:18:06.517Z,98292.22
2023-05-05T03:20:35.827Z,98290.61
2023-05-05T03:23:08.007Z,98290.40
2023-05-05T03:25:46.642Z,98290.23
2023-05-05T03:28:33.265Z,98293.78
2023-05-05T03:31:04.721Z,98293.08
2023-05-05T03:33:33.015Z,98291.64
2023-05-05T03:36:01.563Z,98289.75
2023-05-05T03:38:29.546Z,98291.99
2023-05-05T03:41:00.865Z,98301.65
2023-05-05T03:43:29.075Z,98305.03
2023-05-05T03:45:57.206Z,98305.69
2023-05-05T03:48:25.895Z,98305.92
2023-05-05T03:50:54.142Z,98300.22
2023-05-05T03:53:23.188Z,98299.53
2023-05-05T03:55:52.593Z,98298.16
2023-05-05T03:58:20.580Z,98298.01
2023-05-05T04:00:48.971Z,98300.79
2023-05-05T04:03:18.351Z,98301.16
2023-05-05T04:05:47.227Z,98302.60
2023-05-05T04:08:15.608Z,98305.83
2023-05-05T04:10:43.576Z,98309.52
2023-05-05T04:13:12.028Z,98311.73
2023-05-05T04:15:47.024Z,98311.96
2023-05-05T04:18:15.299Z,98314.98
2023-05-05T04:20:43.503Z,98310.73
2023-05-05T04:23:11.942Z,98315.14
2023-05-05T04:25:41.419Z,98311.77
2023-05-05T04:28:10.743Z,98316.94
2023-05-05T04:30:38.835Z,98312.44
2023-05-05T04:33:06.914Z,98314.70
2023-05-05T04:35:35.166Z,98314.92
2023-05-05T04:38:03.626Z,98317.27
2023-05-05T04:40:31.990Z,98321.19
2023-05-05T04:43:00.383Z,98326.17
2023-05-05T04:45:28.326Z,98329.10
2023-05-05T04:47:56.838Z,98334.14
2023-05-05T04:50:24.819Z,98331.23
2023-05-05T04:52:52.908Z,98331.85
2023-05-05T04:55:21.424Z,98330.45
2023-05-05T04:57:49.358Z,98336.03
2023-05-05T05:00:17.786Z,98338.98
2023-05-05T05:02:45.901Z,98333.43
2023-05-05T05:05:14.377Z,98334.48
2023-05-05T05:07:42.365Z,98340.62
2023-05-05T05:10:10.886Z,98343.15
2023-05-05T05:12:39.025Z,98341.96
2023-05-05T05:15:08.128Z,98341.89
2023-05-05T05:17:36.336Z,98339.52
2023-05-05T05:20:05.377Z,98341.35
2023-05-05T05:22:35.052Z,98341.57
2023-05-05T05:25:03.466Z,98342.13
2023-05-05T05:27:32.000Z,98348.35
2023-05-05T05:30:00.073Z,98351.73
2023-05-05T05:32:29.639Z,98349.35
2023-05-05T05:34:57.673Z,98346.99
2023-05-05T05:37:29.790Z,98345.14
2023-05-05T05:39:58.151Z,98347.70
2023-05-05T05:42:26.867Z,98347.31
2023-05-05T05:44:55.060Z,98348.19
2023-05-05T05:47:23.952Z,98350.63
2023-05-05T05:49:52.263Z,98356.13
2023-05-05T05:52:20.753Z,98356.07
2023-05-05T05:54:49.613Z,98357.81
2023-05-05T05:57:17.752Z,98356.41
2023-05-05T05:59:45.830Z,98354.89
2023-05-05T06:02:14.213Z,98354.36
2023-05-05T06:04:42.455Z,98355.88
2023-05-05T06:07:10.870Z,98359.64
2023-05-05T06:09:38.977Z,98353.81
2023-05-05T06:12:07.199Z,98353.71
2023-05-05T06:14:36.340Z,98356.27
2023-05-05T06:17:04.414Z,98353.27
2023-05-05T06:19:33.139Z,98354.94
2023-05-05T06:22:01.148Z,98359.94
2023-05-05T06:24:29.234Z,98362.23
2023-05-05T06:26:59.530Z,98365.80
2023-05-05T06:29:28.304Z,98366.30
2023-05-05T06:31:56.558Z,98373.42
2023-05-05T06:34:24.584Z,98373.05
2023-05-05T06:36:52.462Z,98376.02
2023-05-05T06:39:20.778Z,98375.38
2023-05-05T06:41:48.720Z,98369.60
2023-05-05T06:44:16.650Z,98368.40
2023-05-05T06:46:44.664Z,98366.81
2023-05-05T06:49:12.918Z,98369.13
2023-05-05T06:51:42.755Z,98365.38
2023-05-05T06:54:11.039Z,98369.48
2023-05-05T06:56:38.969Z,98368.64
2023-05-05T06:59:06.933Z,98368.02
2023-05-05T07:01:34.906Z,98367.40
2023-05-05T07:04:03.095Z,98368.22
2023-05-05T07:06:32.017Z,98365.30
2023-05-05T07:08:59.958Z,98368.77
2023-05-05T07:11:28.097Z,98364.92
2023-05-05T07:13:56.060Z,98363.40
2023-05-05T07:16:27.177Z,98366.86
2023-05-05T07:18:55.352Z,98360.43
2023-05-05T07:21:23.206Z,98360.45
2023-05-05T07:23:51.204Z,98363.45
2023-05-05T07:26:19.106Z,98362.73
2023-05-05T07:28:47.045Z,98359.02
2023-05-05T07:31:14.941Z,98360.48
2023-05-05T07:33:42.853Z,98351.13
2023-05-05T07:36:10.907Z,98357.67
2023-05-05T07:38:38.858Z,98356.60
2023-05-05T07:41:06.823Z,98355.68
2023-05-05T07:43:34.758Z,98351.86
2023-05-05T07:46:02.720Z,98350.71
2023-05-05T07:48:30.963Z,98347.95
2023-05-05T07:50:59.101Z,98347.15
2023-05-05T07:53:27.358Z,98343.20
2023-05-05T07:55:55.951Z,98342.56
2023-05-05T07:58:24.148Z,98343.98
2023-05-05T08:00:52.088Z,98349.02
2023-05-05T08:03:24.532Z,98349.31
2023-05-05T08:05:54.629Z,98349.98
2023-05-05T08:08:25.047Z,98349.86
2023-05-05T08:10:53.476Z,98348.19
2023-05-05T08:13:21.679Z,98344.87
2023-05-05T08:15:49.548Z,98349.73
2023-05-05T08:18:17.431Z,98345.87
2023-05-05T08:20:45.624Z,98346.55
2023-05-05T08:23:13.666Z,98344.16
2023-05-05T08:25:41.908Z,98347.16
2023-05-05T08:28:10.278Z,98343.45
2023-05-05T08:30:38.893Z,98342.69
2023-05-05T08:33:06.909Z,98346.50
2023-05-05T08:35:34.902Z,98339.08
2023-05-05T08:38:02.894Z,98343.40
2023-05-05T08:40:36.940Z,98345.86
2023-05-05T08:43:05.280Z,98343.09
2023-05-05T08:45:34.083Z,98346.72
2023-05-05T08:48:04.892Z,98343.35
2023-05-05T08:50:33.197Z,98340.89
2023-05-05T08:53:10.772Z,98343.23
2023-05-05T08:55:46.610Z,98342.09
2023-05-05T08:58:16.953Z,98341.12
2023-05-05T09:00:45.904Z,98344.95
2023-05-05T09:03:15.695Z,98342.98
2023-05-05T09:05:44.471Z,98341.70
2023-05-05T09:08:12.687Z,98338.54
2023-05-05T09:10:41.871Z,98335.48
2023-05-05T09:13:09.960Z,98337.48
2023-05-05T09:15:39.243Z,98338.05
2023-05-05T09:18:12.254Z,98335.76
2023-05-05T09:20:41.590Z,98340.75
2023-05-05T09:23:20.501Z,98339.85
2023-05-05T09:26:04.472Z,98340.28
2023-05-05T09:28:32.539Z,98338.33
2023-05-05T09:31:15.962Z,98338.08
2023-05-05T09:33:44.455Z,98333.23
2023-05-05T09:36:12.605Z,98334.36
2023-05-05T09:38:40.647Z,98340.96
2023-05-05T09:41:08.563Z,98340.45
2023-05-05T09:43:52.654Z,98337.10
2023-05-05T09:46:21.152Z,98336.28
2023-05-05T09:48:49.130Z,98336.73
2023-05-05T09:51:29.478Z,98335.02
2023-05-05T09:53:57.976Z,98338.34
2023-05-05T09:56:38.552Z,98333.95
2023-05-05T09:59:09.523Z,98342.25
2023-05-05T10:01:38.842Z,98347.49
2023-05-05T10:04:07.007Z,98342.22
2023-05-05T10:06:44.546Z,98339.40
2023-05-05T10:09:12.603Z,98342.65
2023-05-05T10:11:46.650Z,98341.61
2023-05-05T10:14:16.046Z,98343.21
2023-05-05T10:16:49.077Z,98342.09
2023-05-05T10:19:19.168Z,98336.61
2023-05-05T10:22:01.781Z,98335.66
2023-05-05T10:24:38.832Z,98333.77
2023-05-05T10:27:17.915Z,98332.70
2023-05-05T10:29:50.039Z,98333.88
2023-05-05T10:32:52.939Z,98335.08
2023-05-05T10:35:22.997Z,98330.89
2023-05-05T10:37:51.033Z,98323.51
2023-05-05T10:40:22.399Z,98327.13
2023-05-05T10:42:51.453Z,98324.84
2023-05-05T10:45:19.536Z,98323.60
2023-05-05T10:47:47.930Z,98325.32
2023-05-05T10:50:36.694Z,98329.39
2023-05-05T10:53:32.830Z,98321.45
2023-05-05T10:56:10.898Z,98319.67
2023-05-05T10:58:58.245Z,98317.58
2023-05-05T11:01:31.354Z,98315.99
2023-05-05T11:04:19.578Z,98313.46
2023-05-05T11:07:14.954Z,98307.81
2023-05-05T11:10:03.521Z,98306.50
2023-05-05T11:12:34.607Z,98305.06
2023-05-05T11:15:22.401Z,98302.50
2023-05-05T11:17:51.242Z,98300.82
2023-05-05T11:20:43.714Z,98298.48
2023-05-05T11:23:11.929Z,98296.11
2023-05-05T11:25:44.759Z,98293.61
2023-05-05T11:28:18.249Z,98296.98
2023-05-05T11:30:55.030Z,98297.86
2023-05-05T11:33:23.174Z,98296.39
2023-05-05T11:35:55.288Z,98295.48
2023-05-05T11:39:05.127Z,98291.45
2023-05-05T11:41:33.050Z,98289.98
2023-05-05T11:44:14.098Z,98294.27
2023-05-05T11:47:04.967Z,98295.19
2023-05-05T11:49:38.142Z,98286.48
2023-05-05T11:52:12.571Z,98289.20
2023-05-05T11:54:47.756Z,98292.20
2023-05-05T11:57:19.476Z,98289.77
2023-05-05T11:59:52.868Z,98287.61
2023-05-05T12:02:22.047Z,98286.69
2023-05-05T12:04:51.043Z,98285.06
2023-05-05T12:07:20.975Z,98286.27
2023-05-05T12:09:50.123Z,98285.98
2023-05-05T12:12:18.784Z,98284.58
2023-05-05T12:14:52.558Z,98279.20
2023-05-05T12:17:22.108Z,98280.36
2023-05-05T12:19:54.622Z,98284.34
2023-05-05T12:22:24.609Z,98276.59
2023-05-05T12:25:00.294Z,98272.52
2023-05-05T12:27:28.946Z,98270.55
2023-05-05T12:30:10.234Z,98267.85
2023-05-05T12:32:38.416Z,98263.45
2023-05-05T12:35:07.980Z,98265.52
2023-05-05T12:37:36.722Z,98271.35
2023-05-05T12:40:06.605Z,98269.04
2023-05-05T12:42:40.089Z,98267.27
2023-05-05T12:45:17.526Z,98267.50
2023-05-05T12:47:45.568Z,98268.34
2023-05-05T12:50:13.476Z,98268.65
2023-05-05T12:52:45.059Z,98261.79
2023-05-05T12:55:13.350Z,98254.59
2023-05-05T12:58:01.547Z,98252.95
2023-05-05T13:00:29.488Z,98253.88
2023-05-05T13:02:58.177Z,98253.51
2023-05-05T13:05:34.376Z,98253.20
2023-05-05T13:08:03.046Z,98244.86
2023-05-05T13:10:31.500Z,98243.29
2023-05-05T13:12:59.647Z,98240.94
2023-05-05T13:15:28.069Z,98243.77
2023-05-05T13:18:00.603Z,98238.40
2023-05-05T13:20:29.246Z,98234.73
2023-05-05T13:22:57.478Z,98232.02
2023-05-05T13:25:25.293Z,98234.02
2023-05-05T13:27:53.082Z,98231.02
2023-05-05T13:30:21.165Z,98233.05
2023-05-05T13:32:49.154Z,98238.15
2023-05-05T13:35:20.584Z,98230.02
2023-05-05T13:37:49.089Z,98225.02
2023-05-05T13:40:16.958Z,98220.22
2023-05-05T13:42:44.910Z,98221.00
2023-05-05T13:45:14.226Z,98219.97
2023-05-05T13:47:43.049Z,98220.77
2023-05-05T13:50:11.384Z,98217.70
2023-05-05T13:52:39.249Z,98213.29
2023-05-05T13:55:07.784Z,98214.40
2023-05-05T13:57:35.787Z,98212.66
2023-05-05T14:00:04.521Z,98206.00
2023-05-05T14:02:35.753Z,98208.55
2023-05-05T14:05:04.177Z,98207.71
2023-05-05T14:07:32.931Z,98208.33
2023-05-05T14:10:00.879Z,98206.84
2023-05-05T14:12:28.848Z,98202.16
2023-05-05T14:14:56.731Z,98199.48
2023-05-05T14:17:27.588Z,98194.45
2023-05-05T14:19:55.755Z,98192.23
2023-05-05T14:22:23.905Z,98191.71
2023-05-05T14:24:51.895Z,98193.58
2023-05-05T14:27:19.849Z,98192.40
2023-05-05T14:29:47.746Z,98190.03
2023-05-05T14:32:15.874Z,98190.32
2023-05-05T14:34:43.930Z,98189.89
2023-05-05T14:37:11.801Z,98188.08
2023-05-05T14:39:39.653Z,98186.42
2023-05-05T14:42:07.616Z,98187.40
2023-05-05T14:44:36.243Z,98185.88
2023-05-05T14:47:04.247Z,98189.19
2023-05-05T14:49:32.430Z,98193.98
2023-05-05T14:52:00.468Z,98199.24
2023-05-05T14:54:29.087Z,98199.58
2023-05-05T14:56:58.453Z,98195.88
2023-05-05T14:59:27.754Z,98199.01
2023-05-05T15:01:56.599Z,98197.92
2023-05-05T15:04:24.706Z,98199.58
2023-05-05T15:06:52.668Z,98206.08
2023-05-05T15:09:20.616Z,98196.48
2023-05-05T15:11:48.579Z,98196.63
2023-05-05T15:14:16.521Z,98196.09
2023-05-05T15:16:46.815Z,98193.21
2023-05-05T15:19:14.815Z,98195.89
2023-05-05T15:21:42.713Z,98198.34
2023-05-05T15:24:10.669Z,98203.41
2023-05-05T15:26:38.643Z,98195.48
2023-05-05T15:29:06.521Z,98193.89
2023-05-05T15:31:34.445Z,98194.09
2023-05-05T15:34:02.404Z,98193.66
2023-05-05T15:36:30.363Z,98196.21
2023-05-05T15:38:58.305Z,98194.30
2023-05-05T15:41:29.437Z,98200.12
2023-05-05T15:43:58.101Z,98199.63
2023-05-05T15:46:26.450Z,98195.90
2023-05-05T15:48:54.466Z,98194.69
2023-05-05T15:51:22.419Z,98192.94
2023-05-05T15:53:52.427Z,98191.11
2023-05-05T15:56:20.407Z,98186.36
2023-05-05T15:58:48.289Z,98182.81
2023-05-05T16:01:16.728Z,98179.76
2023-05-05T16:03:44.785Z,98181.06
2023-05-05T16:06:12.976Z,98174.23
2023-05-05T16:08:40.970Z,98177.23
2023-05-05T16:11:08.885Z,98172.27
2023-05-05T16:13:39.042Z,98172.78
2023-05-05T16:16:07.163Z,98168.77
2023-05-05T16:18:35.076Z,98170.64
2023-05-05T16:21:03.057Z,98170.36
2023-05-05T16:23:30.980Z,98174.44
2023-05-05T16:25:58.900Z,98176.09
2023-05-05T16:28:27.263Z,98175.20
2023-05-05T16:30:55.163Z,98178.95
2023-05-05T16:33:23.085Z,98178.55
2023-05-05T16:35:51.014Z,98174.52
2023-05-05T16:38:18.966Z,98178.67
2023-05-05T16:40:46.946Z,98182.39
2023-05-05T16:43:14.905Z,98177.40
2023-05-05T16:45:43.544Z,98176.21
2023-05-05T16:48:12.442Z,98179.95
2023-05-05T16:50:40.394Z,98176.23
2023-05-05T16:53:09.306Z,98177.45
2023-05-05T16:55:37.567Z,98175.23
2023-05-05T16:58:05.558Z,98175.70
2023-05-05T17:00:33.911Z,98178.29
2023-05-05T17:03:01.847Z,98178.49
2023-05-05T17:05:30.189Z,98179.82
2023-05-05T17:07:58.687Z,98183.86
2023-05-05T17:10:27.191Z,98181.23
2023-05-05T17:12:55.156Z,98183.91
2023-05-05T17:15:23.099Z,98184.29
2023-05-05T17:17:51.109Z,98184.77
2023-05-05T17:20:19.069Z,98190.85
2023-05-05T17:22:47.031Z,98196.41
2023-05-05T17:25:14.999Z,98194.96
2023-05-05T17:27:42.904Z,98193.33
2023-05-05T17:30:11.186Z,98193.77
2023-05-05T17:32:39.224Z,98195.41
2023-05-05T17:35:07.703Z,98194.19
2023-05-05T17:37:36.728Z,98195.27
2023-05-05T17:40:05.739Z,98196.38
2023-05-05T17:42:33.801Z,98200.00
2023-05-05T17:45:03.034Z,98204.40
2023-05-05T17:47:31.078Z,98203.50
2023-05-05T17:49:59.527Z,98201.98
2023-05-05T17:52:27.556Z,98205.52
2023-05-05T17:54:55.617Z,98202.09
2023-05-05T17:57:23.762Z,98204.56
2023-05-05T17:59:53.749Z,98206.16
2023-05-05T18:02:22.132Z,98207.14
2023-05-05T18:04:50.113Z,98203.55
2023-05-05T18:07:18.007Z,98200.12
2023-05-05T18:09:45.906Z,98201.91
2023-05-05T18:12:13.860Z,98206.45
2023-05-05T18:14:41.866Z,98202.37
2023-05-05T18:17:09.783Z,98202.98
2023-05-05T18:19:39.148Z,98200.83
2023-05-05T18:22:07.167Z,98202.33
2023-05-05T18:24:35.124Z,98203.48
2023-05-05T18:27:06.040Z,98200.90
2023-05-05T18:29:35.329Z,98200.55
2023-05-05T18:32:05.876Z,98204.37
2023-05-05T18:34:34.475Z,98205.13
2023-05-05T18:37:02.485Z,98208.05
2023-05-05T18:39:30.417Z,98212.69
2023-05-05T18:41:58.395Z,98212.17
2023-05-05T18:44:26.611Z,98214.55
2023-05-05T18:46:54.597Z,98212.77
2023-05-05T18:49:23.395Z,98211.07
2023-05-05T18:51:52.202Z,98210.05
2023-05-05T18:54:21.367Z,98206.55
2023-05-05T18:56:49.981Z,98205.14
2023-05-05T18:59:17.916Z,98207.27
2023-05-05T19:01:46.100Z,98210.11
2023-05-05T19:04:29.587Z,98208.55
2023-05-05T19:06:59.564Z,98209.79
2023-05-05T19:09:27.934Z,98206.64
2023-05-05T19:11:56.381Z,98210.92
2023-05-05T19:14:24.473Z,98210.67
2023-05-05T19:16:53.036Z,98207.30
2023-05-05T19:19:21.263Z,98204.83
2023-05-05T19:21:49.174Z,98205.80
2023-05-05T19:24:17.082Z,98203.80
2023-05-05T19:26:45.149Z,98204.94
2023-05-05T19:29:13.301Z,98203.51
2023-05-05T19:31:41.329Z,98199.36
2023-05-05T19:34:09.328Z,98198.67
2023-05-05T19:36:38.128Z,98199.00
2023-05-05T19:39:06.076Z,98202.23
2023-05-05T19:41:35.543Z,98201.17
2023-05-05T19:44:03.728Z,98198.29
2023-05-05T19:46:31.803Z,98197.04
2023-05-05T19:48:59.699Z,98196.52
2023-05-05T19:51:27.635Z,98197.42
2023-05-05T19:53:55.616Z,98192.67
2023-05-05T19:56:24.033Z,98189.73
2023-05-05T19:58:54.348Z,98189.22
2023-05-05T20:01:22.547Z,98190.20
2023-05-05T20:03:51.536Z,98189.63
2023-05-05T20:06:19.810Z,98187.09
2023-05-05T20:08:47.746Z,98184.20
2023-05-05T20:11:17.066Z,98185.20
2023-05-05T20:13:45.001Z,98186.39
2023-05-05T20:16:13.831Z,98189.82
2023-05-05T20:18:41.792Z,98186.77
2023-05-05T20:21:09.775Z,98182.27
2023-05-05T20:23:37.764Z,98182.59
2023-05-05T20:26:06.435Z,98180.63
2023-05-05T20:28:34.478Z,98177.77
2023-05-05T20:31:02.435Z,98174.55
2023-05-05T20:33:30.419Z,98175.11
2023-05-05T20:35:58.328Z,98177.61
2023-05-05T20:38:26.291Z,98181.48
2023-05-05T20:40:54.183Z,98178.33
2023-05-05T20:43:22.058Z,98180.82
2023-05-05T20:45:49.957Z,98180.94
2023-05-05T20:48:18.017Z,98185.77
2023-05-05T20:50:45.931Z,98184.47
2023-05-05T20:53:15.157Z,98183.10
2023-05-05T20:55:43.600Z,98179.48
2023-05-05T20:58:11.830Z,98180.16
2023-05-05T21:00:40.180Z,98182.91
2023-05-05T21:03:08.317Z,98177.23
2023-05-05T21:05:37.368Z,98179.92
2023-05-05T21:08:05.572Z,98176.66
2023-05-05T21:10:33.802Z,98178.59
2023-05-05T21:13:03.066Z,98175.92
2023-05-05T21:15:32.029Z,98177.52
2023-05-05T21:18:00.003Z,98175.38
2023-05-05T21:20:27.964Z,98173.83
2023-05-05T21:22:56.998Z,98168.42
2023-05-05T21:25:25.504Z,98166.42
2023-05-05T21:27:53.466Z,98166.25
2023-05-05T21:30:23.187Z,98160.60
2023-05-05T21:32:52.099Z,98157.41
2023-05-05T21:35:20.079Z,98156.21
2023-05-05T21:37:48.937Z,98151.86
2023-05-05T21:40:16.902Z,98152.57
2023-05-05T21:42:45.169Z,98151.16
2023-05-05T21:45:13.130Z,98149.52
2023-05-05T21:47:41.148Z,98147.32
2023-05-05T21:50:10.407Z,98149.70
2023-05-05T21:52:38.701Z,98146.02
2023-05-05T21:55:07.030Z,98145.61
2023-05-05T21:57:35.043Z,98140.11
2023-05-05T22:00:06.076Z,98142.19
2023-05-05T22:02:40.493Z,98142.70
2023-05-05T22:05:09.373Z,98143.34
2023-05-05T22:07:37.273Z,98142.19
2023-05-05T22:10:05.587Z,98143.40
2023-05-05T22:12:33.605Z,98142.46
2023-05-05T22:15:01.751Z,98143.16
2023-05-05T22:17:29.691Z,98144.79
2023-05-05T22:19:57.664Z,98148.02
2023-05-05T22:22:25.607Z,98145.89
2023-05-05T22:24:53.527Z,98146.10
2023-05-05T22:27:21.464Z,98146.57
2023-05-05T22:29:49.448Z,98148.75
2023-05-05T22:32:17.330Z,98149.27
2023-05-05T22:34:45.212Z,98153.16
2023-05-05T22:37:14.175Z,98150.34
2023-05-05T22:39:42.094Z,98149.30
2023-05-05T22:42:09.973Z,98142.11
2023-05-05T22:44:38.935Z,98139.66
2023-05-05T22:47:07.135Z,98133.07
2023-05-05T22:49:35.235Z,98129.98
2023-05-05T22:52:03.602Z,98126.44
2023-05-05T22:54:32.038Z,98127.55
2023-05-05T22:57:00.020Z,98126.27
2023-05-05T22:59:27.922Z,98130.62
2023-05-05T23:01:55.882Z,98124.37
2023-05-05T23:04:23.988Z,98116.38
2023-05-05T23:06:52.122Z,98115.39
2023-05-05T23:09:20.081Z,98112.27
2023-05-05T23:11:47.998Z,98110.73
2023-05-05T23:14:16.998Z,98109.83
2023-05-05T23:16:47.808Z,98109.23
2023-05-05T23:19:15.781Z,98110.15
2023-05-05T23:21:52.727Z,98106.20
2023-05-05T23:24:22.105Z,98098.52
2023-05-05T23:26:52.014Z,98098.36
2023-05-05T23:29:20.782Z,98099.42
2023-05-05T23:31:48.705Z,98092.80
2023-05-05T23:34:16.647Z,98088.80
2023-05-05T23:36:44.546Z,98088.91
2023-05-05T23:39:12.444Z,98093.80
2023-05-05T23:41:40.435Z,98091.93
2023-05-05T23:44:08.469Z,98096.83
2023-05-05T23:46:36.469Z,98092.21
2023-05-05T23:49:04.427Z,98092.52
2023-05-05T23:51:32.925Z,98094.38
2023-05-05T23:54:01.279Z,98095.13
2023-05-05T23:56:29.167Z,98094.31
2023-05-05T23:58:57.050Z,98097.45
